createdAt,value
2018-06-08T00:02:20.104Z,15.40
2018-06-08T00:04:48.531Z,15.30
2018-06-08T00:07:17.696Z,15.20
2018-06-08T00:09:46.116Z,15.30
2018-06-08T00:12:14.584Z,15.20
2018-06-08T00:14:42.994Z,15.10
2018-06-08T00:17:11.472Z,15.10
2018-06-08T00:19:39.964Z,15.00
2018-06-08T00:22:09.213Z,14.90
2018-06-08T00:24:37.759Z,14.90
2018-06-08T00:27:06.165Z,15.00
2018-06-08T00:29:34.665Z,15.00
2018-06-08T00:32:03.121Z,14.90
2018-06-08T00:34:31.572Z,14.90
2018-06-08T00:37:00.017Z,14.90
2018-06-08T00:39:28.481Z,14.80
2018-06-08T00:41:56.941Z,14.80
2018-06-08T00:44:25.453Z,14.80
2018-06-08T00:46:53.902Z,14.70
2018-06-08T00:49:22.343Z,14.60
2018-06-08T00:51:50.805Z,14.50
2018-06-08T00:54:19.264Z,14.50
2018-06-08T00:56:58.958Z,14.40
2018-06-08T00:59:27.422Z,14.40
2018-06-08T01:01:55.856Z,14.40
2018-06-08T01:04:24.320Z,14.40
2018-06-08T01:06:52.736Z,14.40
2018-06-08T01:09:21.208Z,14.30
2018-06-08T01:11:49.669Z,14.30
2018-06-08T01:14:18.205Z,14.20
2018-06-08T01:16:46.865Z,14.20
2018-06-08T01:19:15.313Z,14.20
2018-06-08T01:21:43.764Z,14.10
2018-06-08T01:24:12.582Z,14.10
2018-06-08T01:26:41.047Z,14.10
2018-06-08T01:29:09.465Z,14.00
2018-06-08T01:31:37.913Z,14.00
2018-06-08T01:34:06.744Z,13.90
2018-06-08T01:36:35.771Z,13.90
2018-06-08T01:39:05.855Z,13.90
2018-06-08T01:41:34.308Z,13.90
2018-06-08T01:44:02.957Z,13.90
2018-06-08T01:46:31.415Z,13.80
2018-06-08T01:49:00.060Z,13.80
2018-06-08T01:51:28.622Z,13.70
2018-06-08T01:53:57.614Z,13.80
2018-06-08T01:56:26.042Z,13.70
2018-06-08T01:58:54.500Z,13.60
2018-06-08T02:01:22.938Z,13.60
2018-06-08T02:03:51.425Z,13.60
2018-06-08T02:06:19.891Z,13.60
2018-06-08T02:08:48.368Z,13.50
2018-06-08T02:11:16.826Z,13.50
2018-06-08T02:16:13.446Z,13.40
2018-06-08T02:18:41.846Z,13.40
2018-06-08T02:21:10.335Z,13.50
2018-06-08T02:23:38.820Z,13.50
2018-06-08T02:26:07.520Z,13.40
2018-06-08T02:28:35.962Z,13.30
2018-06-08T02:31:04.356Z,13.30
2018-06-08T02:33:32.835Z,13.40
2018-06-08T02:36:01.297Z,13.30
2018-06-08T02:38:29.734Z,13.30
2018-06-08T02:40:58.204Z,13.20
2018-06-08T02:45:54.782Z,13.10
2018-06-08T02:48:23.253Z,13.20
2018-06-08T02:50:51.673Z,13.20
2018-06-08T02:53:20.119Z,13.10
2018-06-08T02:55:48.560Z,13.20
2018-06-08T02:58:17.067Z,13.10
2018-06-08T03:03:13.669Z,13.10
2018-06-08T03:05:42.117Z,13.10
2018-06-08T03:08:10.568Z,13.10
2018-06-08T03:10:39.035Z,13.10
2018-06-08T03:13:07.524Z,13.10
2018-06-08T03:15:35.963Z,13.10
2018-06-08T03:18:04.441Z,13.20
2018-06-08T03:20:32.977Z,13.30
2018-06-08T03:23:02.037Z,13.30
2018-06-08T03:25:30.494Z,13.40
2018-06-08T03:27:59.018Z,13.40
2018-06-08T03:30:27.467Z,13.50
2018-06-08T03:32:55.914Z,13.50
2018-06-08T03:35:24.435Z,13.50
2018-06-08T03:37:52.913Z,13.50
2018-06-08T03:40:21.418Z,13.50
2018-06-08T03:42:49.821Z,13.60
2018-06-08T03:45:18.341Z,13.60
2018-06-08T03:47:47.052Z,13.60
2018-06-08T03:50:15.476Z,13.60
2018-06-08T03:52:45.304Z,13.70
2018-06-08T03:57:41.908Z,13.60
2018-06-08T04:00:10.354Z,13.70
2018-06-08T04:05:06.936Z,13.60
2018-06-08T04:07:35.356Z,13.60
2018-06-08T04:10:03.966Z,13.60
2018-06-08T04:12:32.474Z,13.60
2018-06-08T04:15:00.947Z,13.60
2018-06-08T04:17:29.413Z,13.70
2018-06-08T04:19:58.593Z,13.70
2018-06-08T04:22:27.020Z,13.70
2018-06-08T04:24:55.513Z,13.70
2018-06-08T04:27:24.168Z,13.70
2018-06-08T04:29:52.664Z,13.70
2018-06-08T04:32:21.116Z,13.80
2018-06-08T04:37:18.314Z,13.90
2018-06-08T04:39:46.737Z,13.90
2018-06-08T04:42:15.200Z,13.90
2018-06-08T04:44:43.715Z,14.00
2018-06-08T04:47:12.246Z,14.10
2018-06-08T04:49:40.765Z,14.10
2018-06-08T04:52:09.253Z,14.10
2018-06-08T04:54:37.765Z,14.30
2018-06-08T04:57:06.200Z,14.30
2018-06-08T04:59:35.234Z,14.40
2018-06-08T05:04:31.858Z,14.50
2018-06-08T05:07:00.337Z,14.60
2018-06-08T05:09:28.806Z,14.70
2018-06-08T05:11:57.753Z,14.80
2018-06-08T05:14:26.240Z,14.90
2018-06-08T05:19:23.346Z,15.00
2018-06-08T05:21:51.796Z,15.10
2018-06-08T05:24:20.673Z,15.10
2018-06-08T05:26:49.189Z,15.20
2018-06-08T05:29:17.932Z,15.30
2018-06-08T05:31:46.594Z,15.40
2018-06-08T05:34:15.194Z,15.50
2018-06-08T05:36:43.886Z,15.60
2018-06-08T05:39:12.519Z,15.80
2018-06-08T05:41:41.818Z,15.90
2018-06-08T05:44:10.280Z,16.00
2018-06-08T05:46:39.120Z,16.10
2018-06-08T05:49:07.628Z,16.20
2018-06-08T05:51:36.680Z,16.30
2018-06-08T05:54:05.202Z,16.40
2018-06-08T05:56:34.120Z,16.50
2018-06-08T05:59:02.743Z,16.50
2018-06-08T06:01:31.296Z,16.50
2018-06-08T06:03:59.802Z,16.60
2018-06-08T06:06:28.316Z,16.60
2018-06-08T06:08:57.026Z,16.70
2018-06-08T06:11:25.953Z,16.80
2018-06-08T06:13:54.910Z,16.90
2018-06-08T06:16:23.449Z,16.90
2018-06-08T06:18:52.860Z,17.00
2018-06-08T06:21:21.501Z,17.00
2018-06-08T06:23:50.029Z,17.00
2018-06-08T06:26:19.189Z,17.10
2018-06-08T06:28:47.771Z,17.10
2018-06-08T06:31:16.489Z,17.20
2018-06-08T06:33:45.342Z,17.20
2018-06-08T06:36:14.055Z,17.30
2018-06-08T06:38:43.118Z,17.30
2018-06-08T06:41:11.559Z,17.40
2018-06-08T06:43:40.001Z,17.40
2018-06-08T06:46:08.533Z,17.50
2018-06-08T06:48:37.690Z,17.40
2018-06-08T06:51:06.215Z,17.50
2018-06-08T06:53:34.705Z,17.60
2018-06-08T06:56:03.417Z,17.60
2018-06-08T06:58:31.915Z,17.70
2018-06-08T07:01:00.468Z,17.90
2018-06-08T07:03:28.957Z,17.90
2018-06-08T07:05:57.378Z,17.90
2018-06-08T07:08:25.827Z,18.00
2018-06-08T07:10:54.289Z,18.00
2018-06-08T07:13:22.824Z,18.30
2018-06-08T07:15:51.264Z,18.40
2018-06-08T07:18:19.777Z,18.70
2018-06-08T07:20:48.280Z,18.90
2018-06-08T07:23:16.837Z,19.10
2018-06-08T07:25:46.052Z,19.40
2018-06-08T07:28:14.469Z,19.70
2018-06-08T07:30:42.924Z,20.20
2018-06-08T07:33:11.383Z,20.60
2018-06-08T07:35:39.893Z,21.10
2018-06-08T07:38:08.341Z,21.40
2018-06-08T07:40:37.505Z,21.60
2018-06-08T07:43:06.005Z,22.00
2018-06-08T07:45:34.557Z,22.30
2018-06-08T07:48:02.995Z,22.40
2018-06-08T07:50:31.446Z,22.60
2018-06-08T07:52:59.938Z,22.70
2018-06-08T07:55:28.458Z,22.80
2018-06-08T07:57:57.133Z,23.10
2018-06-08T08:00:26.956Z,23.30
2018-06-08T08:02:55.633Z,23.50
2018-06-08T08:05:24.105Z,23.70
2018-06-08T08:07:53.084Z,24.10
2018-06-08T08:10:21.533Z,24.10
2018-06-08T08:12:50.206Z,24.00
2018-06-08T08:15:19.325Z,24.30
2018-06-08T08:17:47.799Z,24.40
2018-06-08T08:20:16.782Z,24.40
2018-06-08T08:22:45.252Z,24.70
2018-06-08T08:25:14.245Z,24.60
2018-06-08T08:27:42.697Z,24.60
2018-06-08T08:30:11.090Z,25.00
2018-06-08T08:32:39.632Z,25.10
2018-06-08T08:35:08.526Z,25.30
2018-06-08T08:37:37.088Z,25.40
2018-06-08T08:40:05.605Z,25.60
2018-06-08T08:42:34.074Z,25.80
2018-06-08T08:45:02.850Z,25.80
2018-06-08T08:49:59.461Z,26.20
2018-06-08T08:52:28.469Z,26.30
2018-06-08T08:54:56.920Z,26.30
2018-06-08T08:57:25.318Z,26.40
2018-06-08T08:59:54.747Z,26.60
2018-06-08T09:02:23.203Z,26.70
2018-06-08T09:04:51.677Z,26.80
2018-06-08T09:07:20.125Z,26.90
2018-06-08T09:09:48.781Z,27.00
2018-06-08T09:12:17.845Z,27.20
2018-06-08T09:14:46.261Z,26.70
2018-06-08T09:17:14.722Z,26.50
2018-06-08T09:19:43.214Z,25.80
2018-06-08T09:22:11.746Z,25.60
2018-06-08T09:24:41.325Z,25.60
2018-06-08T09:27:10.344Z,25.40
2018-06-08T09:29:38.826Z,25.30
2018-06-08T09:32:07.357Z,25.40
2018-06-08T09:34:35.773Z,25.30
2018-06-08T09:37:05.036Z,25.80
2018-06-08T09:39:33.498Z,25.80
2018-06-08T09:42:02.038Z,26.10
2018-06-08T09:44:30.478Z,26.00
2018-06-08T09:46:59.017Z,25.70
2018-06-08T09:49:27.997Z,25.60
2018-06-08T09:51:56.471Z,25.60
2018-06-08T09:54:24.901Z,26.00
2018-06-08T09:56:53.805Z,26.40
2018-06-08T09:59:22.266Z,26.50
2018-06-08T10:01:50.709Z,26.50
2018-06-08T10:04:19.125Z,26.40
2018-06-08T10:06:47.660Z,26.70
2018-06-08T10:09:16.217Z,26.80
2018-06-08T10:11:44.655Z,26.30
2018-06-08T10:14:13.152Z,26.20
2018-06-08T10:16:41.766Z,26.50
2018-06-08T10:19:10.245Z,26.00
2018-06-08T10:21:38.706Z,25.80
2018-06-08T10:24:07.726Z,26.00
2018-06-08T10:26:37.003Z,25.70
2018-06-08T10:29:05.612Z,25.60
2018-06-08T10:31:34.224Z,25.60
2018-06-08T10:34:02.762Z,25.80
2018-06-08T10:36:31.120Z,25.90
2018-06-08T10:38:59.686Z,26.40
2018-06-08T10:43:56.349Z,27.30
2018-06-08T10:46:24.765Z,26.80
2018-06-08T10:48:53.248Z,26.20
2018-06-08T10:51:21.765Z,26.90
2018-06-08T10:53:50.800Z,27.60
2018-06-08T10:56:19.352Z,27.90
2018-06-08T10:58:47.927Z,27.50
2018-06-08T11:01:16.418Z,27.40
2018-06-08T11:03:44.936Z,27.00
2018-06-08T11:06:13.473Z,26.70
2018-06-08T11:08:41.996Z,27.10
2018-06-08T11:13:40.089Z,27.60
2018-06-08T11:16:08.611Z,27.60
2018-06-08T11:18:37.608Z,27.50
2018-06-08T11:21:06.236Z,27.40
2018-06-08T11:23:34.897Z,27.70
2018-06-08T11:26:03.353Z,28.20
2018-06-08T11:28:31.880Z,27.60
2018-06-08T11:31:00.418Z,27.50
2018-06-08T11:33:28.937Z,27.20
2018-06-08T11:35:57.391Z,27.00
2018-06-08T11:38:25.953Z,26.70
2018-06-08T11:40:54.340Z,26.60
2018-06-08T11:43:22.834Z,26.40
2018-06-08T11:45:51.358Z,26.50
2018-06-08T11:48:19.824Z,26.30
2018-06-08T11:50:48.725Z,26.30
2018-06-08T11:53:17.293Z,26.60
2018-06-08T11:55:45.686Z,26.50
2018-06-08T11:58:14.204Z,26.30
2018-06-08T12:00:42.701Z,26.80
2018-06-08T12:03:11.141Z,27.70
2018-06-08T12:10:36.621Z,28.70
2018-06-08T12:13:05.064Z,28.20
2018-06-08T12:15:33.540Z,27.60
2018-06-08T12:18:02.105Z,27.50
2018-06-08T12:20:30.724Z,27.50
2018-06-08T12:25:27.356Z,28.40
2018-06-08T12:27:55.841Z,28.70
2018-06-08T12:30:25.021Z,28.70
2018-06-08T12:32:53.655Z,28.30
2018-06-08T12:35:22.132Z,27.70
2018-06-08T12:37:50.601Z,27.40
2018-06-08T12:40:19.750Z,27.20
2018-06-08T12:42:48.230Z,27.50
2018-06-08T12:45:16.718Z,27.20
2018-06-08T12:47:45.166Z,27.00
2018-06-08T12:50:13.657Z,26.90
2018-06-08T12:52:42.124Z,27.20
2018-06-08T12:55:10.553Z,27.80
2018-06-08T12:57:39.001Z,28.50
2018-06-08T13:00:07.428Z,29.00
2018-06-08T13:02:35.897Z,29.30
2018-06-08T13:05:04.385Z,29.50
2018-06-08T13:07:33.475Z,29.80
2018-06-08T13:10:02.018Z,29.80
2018-06-08T13:12:30.665Z,29.50
2018-06-08T13:14:59.248Z,29.10
2018-06-08T13:17:27.682Z,28.70
2018-06-08T13:19:56.201Z,28.40
2018-06-08T13:22:24.764Z,28.30
2018-06-08T13:24:53.701Z,27.90
2018-06-08T13:27:22.221Z,27.80
2018-06-08T13:29:50.699Z,28.00
2018-06-08T13:32:20.141Z,28.00
2018-06-08T13:34:48.945Z,28.60
2018-06-08T13:37:17.960Z,29.20
2018-06-08T13:39:46.660Z,29.60
2018-06-08T13:42:15.583Z,29.60
2018-06-08T13:44:44.034Z,29.20
2018-06-08T13:47:13.385Z,28.80
2018-06-08T13:49:42.169Z,28.40
2018-06-08T13:52:10.686Z,28.20
2018-06-08T13:57:07.922Z,27.60
2018-06-08T13:59:37.124Z,28.30
2018-06-08T14:02:05.589Z,28.70
2018-06-08T14:04:34.425Z,29.10
2018-06-08T14:07:03.205Z,29.10
2018-06-08T14:09:31.716Z,29.60
2018-06-08T14:12:00.356Z,29.70
2018-06-08T14:14:28.851Z,29.70
2018-06-08T14:16:57.993Z,29.50
2018-06-08T14:19:26.465Z,29.40
2018-06-08T14:21:55.863Z,28.80
2018-06-08T14:26:52.426Z,28.20
2018-06-08T14:29:20.894Z,27.70
2018-06-08T14:34:17.485Z,27.20
2018-06-08T14:36:45.921Z,26.90
2018-06-08T14:39:14.449Z,26.60
2018-06-08T14:41:42.949Z,26.40
2018-06-08T14:44:11.787Z,26.50
2018-06-08T14:49:08.367Z,26.40
2018-06-08T14:51:37.006Z,26.50
2018-06-08T14:54:06.170Z,26.50
2018-06-08T14:56:34.632Z,26.40
2018-06-08T14:59:03.749Z,26.30
2018-06-08T15:01:32.246Z,26.20
2018-06-08T15:04:00.802Z,26.00
2018-06-08T15:06:29.900Z,25.80
2018-06-08T15:08:58.396Z,25.60
2018-06-08T15:11:26.885Z,25.50
2018-06-08T15:13:55.379Z,25.30
2018-06-08T15:16:23.922Z,25.20
2018-06-08T15:18:52.488Z,25.10
2018-06-08T15:21:21.011Z,25.00
2018-06-08T15:23:49.587Z,25.10
2018-06-08T15:26:18.668Z,25.10
2018-06-08T15:28:47.148Z,24.90
2018-06-08T15:31:15.565Z,24.90
2018-06-08T15:33:44.580Z,24.90
2018-06-08T15:36:13.174Z,24.90
2018-06-08T15:38:41.617Z,24.80
2018-06-08T15:41:10.681Z,24.90
2018-06-08T15:43:39.245Z,24.90
2018-06-08T15:46:07.793Z,24.80
2018-06-08T15:48:36.235Z,24.80
2018-06-08T15:51:05.462Z,24.70
2018-06-08T15:53:33.988Z,24.70
2018-06-08T15:56:02.460Z,24.50
2018-06-08T15:58:30.962Z,24.40
2018-06-08T16:00:59.516Z,24.40
2018-06-08T16:03:31.591Z,24.30
2018-06-08T16:06:00.131Z,24.20
2018-06-08T16:08:28.589Z,24.00
2018-06-08T16:10:57.177Z,23.90
2018-06-08T16:13:25.642Z,23.60
2018-06-08T16:15:54.074Z,23.60
2018-06-08T16:18:22.922Z,23.40
2018-06-08T16:20:51.393Z,23.20
2018-06-08T16:23:19.836Z,23.10
2018-06-08T16:25:48.243Z,23.10
2018-06-08T16:28:16.778Z,23.10
2018-06-08T16:30:45.275Z,23.10
2018-06-08T16:33:13.833Z,23.00
2018-06-08T16:35:42.325Z,23.10
2018-06-08T16:38:10.771Z,23.10
2018-06-08T16:40:39.285Z,23.10
2018-06-08T16:43:08.644Z,23.10
2018-06-08T16:48:05.353Z,23.00
2018-06-08T16:50:33.875Z,23.00
2018-06-08T16:53:02.343Z,23.00
2018-06-08T16:55:30.965Z,22.80
2018-06-08T16:58:00.372Z,22.50
2018-06-08T17:00:29.711Z,22.50
2018-06-08T17:02:58.302Z,22.40
2018-06-08T17:05:26.972Z,22.30
2018-06-08T17:07:56.411Z,22.30
2018-06-08T17:10:24.956Z,22.30
2018-06-08T17:12:53.601Z,22.20
2018-06-08T17:15:22.265Z,22.20
2018-06-08T17:17:52.005Z,22.20
2018-06-08T17:20:20.701Z,22.20
2018-06-08T17:22:49.110Z,22.20
2018-06-08T17:25:18.269Z,22.20
2018-06-08T17:27:46.841Z,22.10
2018-06-08T17:30:15.440Z,22.00
2018-06-08T17:32:43.873Z,21.90
2018-06-08T17:35:12.805Z,21.70
2018-06-08T17:37:41.467Z,21.70
2018-06-08T17:40:11.037Z,21.60
2018-06-08T17:42:39.654Z,21.60
2018-06-08T17:45:08.979Z,21.60
2018-06-08T17:47:37.426Z,21.50
2018-06-08T17:50:06.036Z,21.60
2018-06-08T17:52:34.674Z,21.50
2018-06-08T17:55:03.227Z,21.50
2018-06-08T17:57:31.834Z,21.40
2018-06-08T18:00:00.937Z,21.30
2018-06-08T18:02:29.972Z,21.20
2018-06-08T18:04:58.861Z,21.20
2018-06-08T18:07:27.382Z,21.10
2018-06-08T18:09:57.014Z,21.10
2018-06-08T18:12:25.645Z,21.00
2018-06-08T18:14:54.585Z,21.00
2018-06-08T18:17:23.152Z,20.90
2018-06-08T18:19:51.931Z,20.90
2018-06-08T18:22:20.609Z,20.90
2018-06-08T18:24:49.976Z,20.80
2018-06-08T18:27:18.610Z,20.80
2018-06-08T18:29:48.109Z,20.80
2018-06-08T18:32:17.300Z,20.70
2018-06-08T18:34:45.933Z,20.70
2018-06-08T18:37:14.372Z,20.60
2018-06-08T18:39:42.898Z,20.50
2018-06-08T18:42:12.109Z,20.40
2018-06-08T18:44:40.677Z,20.40
2018-06-08T18:47:09.275Z,20.50
2018-06-08T18:49:38.326Z,20.50
2018-06-08T18:52:07.452Z,20.50
2018-06-08T18:54:36.601Z,20.40
2018-06-08T18:57:05.268Z,20.40
2018-06-08T18:59:33.904Z,20.30
2018-06-08T19:02:03.144Z,20.30
2018-06-08T19:04:31.701Z,20.30
2018-06-08T19:07:00.361Z,20.20
2018-06-08T19:09:29.397Z,20.10
2018-06-08T19:11:57.933Z,20.10
2018-06-08T19:14:27.024Z,20.00
2018-06-08T19:16:56.273Z,20.00
2018-06-08T19:19:24.762Z,20.00
2018-06-08T19:21:54.044Z,20.00
2018-06-08T19:24:23.632Z,19.90
2018-06-08T19:26:52.108Z,19.90
2018-06-08T19:29:20.692Z,19.80
2018-06-08T19:31:49.478Z,19.70
2018-06-08T19:34:19.364Z,19.70
2018-06-08T19:36:48.197Z,19.70
2018-06-08T19:39:17.649Z,19.60
2018-06-08T19:41:46.132Z,19.50
2018-06-08T19:44:14.932Z,19.40
2018-06-08T19:46:44.146Z,19.30
2018-06-08T19:49:12.676Z,19.30
2018-06-08T19:51:41.491Z,19.40
2018-06-08T19:54:09.965Z,19.40
2018-06-08T19:56:39.505Z,19.30
2018-06-08T19:59:08.043Z,19.20
2018-06-08T20:01:37.241Z,19.10
2018-06-08T20:04:06.029Z,19.00
2018-06-08T20:06:34.452Z,19.10
2018-06-08T20:09:03.023Z,19.00
2018-06-08T20:11:31.745Z,18.90
2018-06-08T20:14:00.601Z,18.80
2018-06-08T20:16:29.043Z,18.80
2018-06-08T20:18:57.989Z,18.70
2018-06-08T20:21:26.610Z,18.60
2018-06-08T20:23:55.613Z,18.50
2018-06-08T20:26:24.085Z,18.60
2018-06-08T20:28:52.817Z,18.60
2018-06-08T20:31:21.410Z,18.50
2018-06-08T20:33:49.896Z,18.50
2018-06-08T20:36:18.354Z,18.40
2018-06-08T20:38:46.817Z,18.40
2018-06-08T20:41:15.367Z,18.30
2018-06-08T20:43:43.797Z,18.30
2018-06-08T20:46:12.597Z,18.20
2018-06-08T20:48:41.087Z,18.20
2018-06-08T20:51:09.533Z,18.20
2018-06-08T20:53:38.109Z,18.10
2018-06-08T20:56:06.605Z,18.00
2018-06-08T20:58:35.025Z,18.00
2018-06-08T21:01:03.589Z,18.00
2018-06-08T21:03:31.996Z,18.00
2018-06-08T21:06:00.576Z,18.00
2018-06-08T21:08:29.087Z,17.90
2018-06-08T21:10:57.593Z,17.90
2018-06-08T21:13:26.011Z,17.80
2018-06-08T21:15:54.489Z,17.80
2018-06-08T21:18:23.965Z,17.70
2018-06-08T21:20:52.596Z,17.70
2018-06-08T21:23:21.009Z,17.60
2018-06-08T21:25:49.639Z,17.60
2018-06-08T21:28:18.097Z,17.60
2018-06-08T21:30:46.596Z,17.60
2018-06-08T21:33:15.045Z,17.50
2018-06-08T21:35:43.518Z,17.50
2018-06-08T21:38:12.029Z,17.50
2018-06-08T21:40:41.107Z,17.50
2018-06-08T21:43:09.785Z,17.50
2018-06-08T21:45:38.221Z,17.40
2018-06-08T21:48:06.686Z,17.40
2018-06-08T21:50:35.212Z,17.30
2018-06-08T21:53:03.697Z,17.30
2018-06-08T21:55:32.186Z,17.20
2018-06-08T21:58:01.464Z,17.20
2018-06-08T22:00:30.027Z,17.30
2018-06-08T22:02:58.513Z,17.20
2018-06-08T22:05:27.583Z,17.10
2018-06-08T22:07:56.262Z,17.00
2018-06-08T22:10:24.693Z,17.00
2018-06-08T22:12:53.145Z,16.90
2018-06-08T22:15:21.595Z,16.90
2018-06-08T22:17:50.101Z,17.00
2018-06-08T22:20:18.578Z,17.00
2018-06-08T22:22:47.064Z,17.10
2018-06-08T22:25:15.525Z,17.00
2018-06-08T22:27:43.985Z,17.00
2018-06-08T22:30:12.476Z,16.90
2018-06-08T22:32:40.933Z,16.90
2018-06-08T22:35:09.355Z,17.00
2018-06-08T22:37:37.822Z,17.00
2018-06-08T22:40:06.453Z,16.90
2018-06-08T22:42:34.884Z,17.00
2018-06-08T22:45:03.345Z,16.90
2018-06-08T22:47:31.774Z,16.90
2018-06-08T22:50:00.233Z,16.80
2018-06-08T22:52:28.736Z,16.90
2018-06-08T22:54:57.353Z,17.00
2018-06-08T22:57:25.815Z,17.00
2018-06-08T22:59:54.332Z,17.10
2018-06-08T23:02:22.775Z,17.00
2018-06-08T23:04:51.305Z,17.00
2018-06-08T23:07:19.857Z,17.00
2018-06-08T23:09:48.302Z,17.00
2018-06-08T23:12:16.774Z,16.90
2018-06-08T23:14:45.338Z,16.90
2018-06-08T23:17:13.774Z,16.80
2018-06-08T23:19:42.177Z,16.80
2018-06-08T23:22:10.657Z,16.70
2018-06-08T23:24:39.054Z,16.70
2018-06-08T23:27:08.098Z,16.60
2018-06-08T23:29:36.579Z,16.50
2018-06-08T23:32:05.354Z,16.40
2018-06-08T23:34:33.811Z,16.30
2018-06-08T23:37:02.278Z,16.20
2018-06-08T23:39:30.722Z,16.20
2018-06-08T23:41:59.326Z,16.10
2018-06-08T23:44:27.792Z,16.20
2018-06-08T23:46:56.298Z,16.20
2018-06-08T23:49:24.741Z,16.20
2018-06-08T23:51:53.180Z,16.10
2018-06-08T23:54:21.692Z,16.10
2018-06-08T23:56:50.138Z,16.10
2018-06-08T23:59:18.580Z,16.00
